Rechercher aéroport 
image banner adimage banner adimage banner ad
image banner ad

KRDD - Redding Muni

Situé à Redding, United States

ICAO - RDD, IATA - RDD

Données fournies par Airmate  

Information générale

Coordonnées: N40°30'32" W122°17'36"
Élévation : 505 feet MSL.
Variation magnétique : 14° East
Voir autres Aéroports à California

Données opérationnelles

Special qualification required
Heure actuelle UTC:
Heure actuelle locale:
Météo
METAR: KRDD 262353Z 17020KT 10SM FU CLR 35/05 A2977 RMK AO2 SLP072 T03500050 10383 20311 55011
TAF: KRDD 262331Z 2700/2724 17013KT P6SM SCT150 OVC200 FM270900 VRB03KT P6SM OVC150 FM271500 VRB03KT P6SM -RA OVC100 FM272100 36008KT P6SM BKN150
Voir NOTAMs / SUP AIP / TFR affectant cet aéroport [VIEW]
Fréquences de communication: [VIEW]

Pistes:

Identifiant RWYQFULongueur (ft)Largeur (ft)SurfaceLDA (ft)
12140°5067150ASPH5067
30320°5067150ASPH5067
16180°7003150ASPH7003
347003150ASPH7003

Coordonnées de l'aéroport

Adresse: Redding United States

Autres services d'aviation

Écoles de pilotage

Air Shasta Rotor And Wing

Air Shasta Rotor And Wing
info@airshasta.com+1(530)222-0100

Iasco Flight Training

Iasco Flight Training
info@iascousa.com+1(530)722-9419

Grand Flying Club

Grand Flying Club
info@grandflying.club+1(530)209-5005

Vue satellite de KRDD